Aeroboteco Virtual Airline

Aeroboteco Virtual Airlines! Uma nuvem a frente.



 INFORMAÇÕES METEOROLÓGICAS
METAR FOR LECO
ADDS - METARS form results

(1016 UTC 16 January 2019)
Data provider http://aviationweather.gov/metar/data/
 
METAR text: LECO 161006Z 29004KT 3000 DZ BKN014 BKN022 10/09 Q1018 TEMPO 6000 NSW
Conditions at: LECO (LA CORUNA/ALVEDR, ES) observed 1006 UTC 16 January 2019
Temperature: 10.0°C (50°F)
Dewpoint: 9.0°C (48°F) [RH = 93%]
Pressure (altimeter): 30.06 inches Hg (1018.0 mb)
Winds: from the WNW (290 degrees) at 5 MPH (4 knots; 2.1 m/s)
Visibility: 1.86 miles (2.99 km)
Ceiling: 1400 feet AGL
Clouds: broken clouds at 1400 feet AGL
broken clouds at 2200 feet AGL
Weather: DZ  (moderate drizzle)

METAR text: LECO 161000Z 30003KT 260V360 9999 SCT015 BKN022 BKN028 10/09 Q1018 TEMPO 4000 -RADZ
Conditions at: LECO (LA CORUNA/ALVEDR, ES) observed 1000 UTC 16 January 2019
Temperature: 10.0°C (50°F)
Dewpoint: 9.0°C (48°F) [RH = 93%]
Pressure (altimeter): 30.06 inches Hg (1018.0 mb)
Winds: from the WNW (300 degrees) at 3 MPH (3 knots; 1.5 m/s)
Visibility: 6 or more miles (10+ km)
Ceiling: 2200 feet AGL
Clouds: scattered clouds at 1500 feet AGL
broken clouds at 2200 feet AGL
broken clouds at 2800 feet AGL
Weather: no significant weather observed at this time

METAR text: LECO 160945Z 27004KT 9999 -DZ FEW015 BKN024 BKN031 10/09 Q1017 NOSIG
Conditions at: LECO (LA CORUNA/ALVEDR, ES) observed 0945 UTC 16 January 2019
Temperature: 10.0°C (50°F)
Dewpoint: 9.0°C (48°F) [RH = 93%]
Pressure (altimeter): 30.03 inches Hg (1017.0 mb)
Winds: from the W (270 degrees) at 5 MPH (4 knots; 2.1 m/s)
Visibility: 6 or more miles (10+ km)
Ceiling: 2400 feet AGL
Clouds: few clouds at 1500 feet AGL
broken clouds at 2400 feet AGL
broken clouds at 3100 feet AGL
Weather: -DZ  (light drizzle)

METAR text: LECO 160934Z 25004KT 190V300 3000 -DZ SCT015 BKN022 10/09 Q1017 NOSIG
Conditions at: LECO (LA CORUNA/ALVEDR, ES) observed 0934 UTC 16 January 2019
Temperature: 10.0°C (50°F)
Dewpoint: 9.0°C (48°F) [RH = 93%]
Pressure (altimeter): 30.03 inches Hg (1017.0 mb)
Winds: from the WSW (250 degrees) at 5 MPH (4 knots; 2.1 m/s)
Visibility: 1.86 miles (2.99 km)
Ceiling: 2200 feet AGL
Clouds: scattered clouds at 1500 feet AGL
broken clouds at 2200 feet AGL
Weather: -DZ  (light drizzle)

METAR text: LECO 160930Z VRB03KT 9999 -DZ FEW017 SCT022 BKN030 10/08 Q1017 TEMPO 4000 -RADZ
Conditions at: LECO (LA CORUNA/ALVEDR, ES) observed 0930 UTC 16 January 2019
Temperature: 10.0°C (50°F)
Dewpoint: 8.0°C (46°F) [RH = 87%]
Pressure (altimeter): 30.03 inches Hg (1017.0 mb)
Winds: variable direction winds at 3 MPH (3 knots; 1.5 m/s)
Visibility: 6 or more miles (10+ km)
Ceiling: 3000 feet AGL
Clouds: few clouds at 1700 feet AGL
scattered clouds at 2200 feet AGL
broken clouds at 3000 feet AGL
Weather: -DZ  (light drizzle)

Forecast for: LECO (LA CORUNA/ALVEDR, ES)
Text: TAF LECO 160800Z 1609/1709 25008KT 9999 SCT020 BKN030 TX14/1614Z TN07/1707Z
Forecast period: 0900 UTC 16 January 2019 to 0900 UTC 17 January 2019
Forecast type: FROM: standard forecast or significant change
Winds: from the WSW (250 degrees) at 9 MPH (8 knots; 4.1 m/s)
Visibility: 6 or more miles 10+ km)
Ceiling: 3000 feet AGL
Clouds: scattered clouds at 2000 feet AGL
broken clouds at 3000 feet AGL
Weather: no significant weather forecast for this period
Text: PROB40
Forecast period: 0900 UTC 16 January 2019 to 0900 UTC 17 January 2019
Forecast type: TEMPORARY: The following changes expected for less than half the time period
Visibility: 1.86 miles (2.99 km)
Ceiling: 1000 feet AGL
Clouds: broken clouds at 1000 feet AGL
Weather: RA  (moderate rain)
Text: TEMPO 1609/1709 3000 RA BKN010
Forecast period: 0000 to 0900 UTC 17 January 2019
Forecast type: TEMPORARY: The following changes expected for less than half the time period
Visibility: 0.93 miles (1.50 km)
Ceiling: 500 feet AGL
Clouds: broken clouds at 500 feet AGL
Weather: -RA BR  (light rain, mist)

 MAPA DO AEROPORTO

 INFORMAÇÕES DA PISTA
Pista 03 Tamanho da pista 6358 ft Largura da pista 148 ft
Elevação da pista 327 ft Ranhura da pista 0 ft Proa da pista 31
Pista 21 Tamanho da pista 6358 ft Largura da pista 148 ft
Elevação da pista 286 ft Ranhura da pista 0 ft Proa da pista 211

 FREQUÊNCIAS DO AEROPORTO
Tipo APP Nome SANTIAGO A Frequência 120.2 MHZ
Tipo GND Nome GND Frequência 121.7 MHZ
Tipo TWR Nome A Coruña T Frequência 118.3 MHZ

 AUXÍLIOS DE NAVEGAÇÃO PRÓXIMOS AO AEROPORTO
Tipo NDB Nome La Coruna Frequência 401 KHZ
Tipo VOR-DME Nome La Coruna Frequência 115100 KHZ